Time;durP1;ratioP1;P1;durP2;ratioP2;P2;SDS_P1;SDS_P2;PMS_P1;PMS_P2;Temp;Humidity;BMP_temperature;BMP_pressure;BME280_temperature;BME280_humidity;BME280_pressure;Samples;Min_cycle;Max_cycle;Signal;HPM_P1;HPM_P2
2023/03/12 00:00:47;;;;;;;9.10;5.20;;;-1.20;99.90;;;;;;5078324;28;20081;-63
2023/03/12 00:03:14;;;;;;;8.02;5.25;;;-1.20;99.90;;;;;;5067941;28;20040;-62
2023/03/12 00:05:40;;;;;;;10.38;5.22;;;-1.20;99.90;;;;;;5082456;28;20033;-63
2023/03/12 00:08:07;;;;;;;10.95;5.25;;;-1.20;99.90;;;;;;5080085;28;20489;-63
2023/03/12 00:10:34;;;;;;;9.05;5.47;;;-1.20;99.90;;;;;;5076494;28;20106;-63
2023/03/12 00:13:00;;;;;;;9.50;5.18;;;-1.20;99.90;;;;;;5078326;28;20513;-63
2023/03/12 00:15:26;;;;;;;9.77;5.38;;;-1.30;99.90;;;;;;5083211;28;20036;-63
2023/03/12 00:17:53;;;;;;;10.25;5.35;;;-1.30;99.90;;;;;;5080181;28;20032;-64
2023/03/12 00:20:19;;;;;;;12.60;5.60;;;-1.30;99.90;;;;;;5080682;28;20035;-63
2023/03/12 00:22:44;;;;;;;8.38;5.20;;;-1.30;99.90;;;;;;5084325;28;20049;-63
2023/03/12 00:25:13;;;;;;;11.05;6.72;;;-1.30;99.90;;;;;;5085788;28;20028;-63
2023/03/12 00:27:39;;;;;;;8.30;5.75;;;-1.30;99.90;;;;;;5083467;28;20036;-63
2023/03/12 00:30:05;;;;;;;9.68;5.70;;;-1.20;99.90;;;;;;5052124;28;20391;-63
2023/03/12 00:32:34;;;;;;;9.75;6.25;;;-1.30;99.90;;;;;;5081566;28;20426;-63
2023/03/12 00:35:00;;;;;;;11.65;6.32;;;-1.30;99.90;;;;;;5071113;28;20044;-63
2023/03/12 00:37:26;;;;;;;10.15;6.50;;;-1.30;99.90;;;;;;5081742;28;20568;-63
2023/03/12 00:39:51;;;;;;;8.77;6.30;;;-1.30;99.90;;;;;;5082577;28;20035;-64
2023/03/12 00:42:18;;;;;;;10.02;6.70;;;-1.20;99.90;;;;;;5070581;28;20054;-63
2023/03/12 00:44:44;;;;;;;10.63;6.53;;;-1.20;99.90;;;;;;5083100;28;20409;-65
2023/03/12 00:47:10;;;;;;;11.10;6.53;;;-1.20;99.90;;;;;;5083376;28;20059;-65
2023/03/12 00:49:36;;;;;;;11.38;6.63;;;-1.10;99.90;;;;;;5073050;28;20487;-64
2023/03/12 00:52:02;;;;;;;13.48;7.05;;;-1.20;99.90;;;;;;5084247;28;20040;-64
2023/03/12 00:54:28;;;;;;;11.65;6.90;;;-1.00;99.90;;;;;;5086739;28;20075;-64
2023/03/12 00:56:54;;;;;;;12.15;7.53;;;-1.00;99.90;;;;;;5082795;28;20048;-65
2023/03/12 00:59:20;;;;;;;10.00;6.82;;;-1.00;99.90;;;;;;5084297;28;20552;-65
2023/03/12 01:01:46;;;;;;;10.43;7.20;;;-0.90;99.90;;;;;;5084314;28;20044;-64
2023/03/12 01:04:12;;;;;;;11.30;6.53;;;-0.90;99.90;;;;;;5085919;28;20379;-64
2023/03/12 01:06:38;;;;;;;10.15;6.28;;;-0.90;99.90;;;;;;5076945;28;20044;-65
2023/03/12 01:09:06;;;;;;;10.02;6.97;;;-0.80;99.90;;;;;;5077897;28;20056;-65
2023/03/12 01:11:32;;;;;;;13.50;7.70;;;-0.80;99.90;;;;;;5085323;28;20063;-66
2023/03/12 01:13:59;;;;;;;11.45;6.78;;;-0.70;99.90;;;;;;5081272;28;20071;-64
2023/03/12 01:16:28;;;;;;;10.80;6.22;;;-0.70;99.90;;;;;;5066749;28;20051;-65
2023/03/12 01:18:55;;;;;;;11.30;6.13;;;-0.60;99.90;;;;;;5086277;28;20103;-65
2023/03/12 01:21:22;;;;;;;11.60;6.35;;;-0.70;99.90;;;;;;5083757;28;20056;-65
2023/03/12 01:23:48;;;;;;;13.00;6.82;;;-0.60;99.90;;;;;;5071379;28;20047;-64
2023/03/12 01:26:13;;;;;;;9.75;6.68;;;-0.60;99.90;;;;;;5079758;28;20253;-65
2023/03/12 01:28:39;;;;;;;9.48;6.38;;;-0.50;99.90;;;;;;5084120;28;20491;-64
2023/03/12 01:31:10;;;;;;;9.90;7.30;;;-0.60;99.90;;;;;;5065105;28;20040;-65
2023/03/12 01:33:35;;;;;;;9.88;6.65;;;-0.50;99.90;;;;;;5085953;28;20127;-65
2023/03/12 01:36:01;;;;;;;12.20;7.10;;;-0.50;99.90;;;;;;5081270;28;20115;-65
2023/03/12 01:38:27;;;;;;;8.57;6.95;;;-0.50;99.90;;;;;;5079392;28;20085;-64
2023/03/12 01:40:53;;;;;;;15.70;6.88;;;-0.50;99.90;;;;;;5083553;28;20048;-65
2023/03/12 01:43:34;;;;;;;11.77;6.30;;;-0.50;99.90;;;;;;5084488;28;20029;-64
2023/03/12 01:46:13;;;;;;;11.30;5.80;;;-0.40;99.90;;;;;;5083063;28;20071;-65
2023/03/12 01:48:50;;;;;;;10.65;5.70;;;-0.40;99.90;;;;;;5082508;28;20155;-65
2023/03/12 01:51:17;;;;;;;10.18;5.25;;;-0.40;99.90;;;;;;5083512;28;20123;-64
2023/03/12 01:53:48;;;;;;;9.98;5.80;;;-0.40;99.90;;;;;;5098258;28;20233;-65
2023/03/12 01:56:16;;;;;;;7.28;4.88;;;-0.40;99.90;;;;;;5069703;28;20615;-65
2023/03/12 01:58:46;;;;;;;9.55;6.05;;;-0.40;99.90;;;;;;5080869;28;20040;-65
2023/03/12 02:01:14;;;;;;;7.65;5.32;;;-0.40;99.90;;;;;;5083425;28;20101;-65
2023/03/12 02:03:40;;;;;;;9.82;5.47;;;-0.40;99.90;;;;;;5083822;28;20073;-65
2023/03/12 02:06:12;;;;;;;11.05;5.28;;;-0.40;99.90;;;;;;5078149;28;20029;-65
2023/03/12 02:08:42;;;;;;;7.53;5.10;;;-0.40;99.90;;;;;;5082257;28;20093;-65
2023/03/12 02:11:08;;;;;;;8.57;4.97;;;-0.30;99.90;;;;;;5066269;28;20419;-65
2023/03/12 02:13:35;;;;;;;9.43;5.07;;;-0.30;99.90;;;;;;5060450;28;20101;-65
2023/03/12 02:16:01;;;;;;;6.60;4.65;;;-0.30;99.90;;;;;;5082924;28;20048;-65
2023/03/12 02:18:27;;;;;;;11.25;5.38;;;-0.20;99.90;;;;;;5087607;28;20039;-65
2023/03/12 02:21:17;;;;;;;7.53;5.25;;;-0.20;99.90;;;;;;5095755;28;20407;-65
2023/03/12 02:24:14;;;;;;;14.25;5.38;;;-0.10;99.90;;;;;;5066042;28;20039;-65
2023/03/12 02:26:40;;;;;;;8.40;4.50;;;-0.10;99.90;;;;;;5080675;28;20044;-65
2023/03/12 02:29:09;;;;;;;9.50;4.90;;;-0.10;99.90;;;;;;5084223;28;20703;-65
2023/03/12 02:31:42;;;;;;;8.32;4.63;;;0.00;99.90;;;;;;5067325;28;20048;-65
2023/03/12 02:34:08;;;;;;;9.63;4.75;;;0.00;99.90;;;;;;5075995;28;20037;-65
2023/03/12 02:36:34;;;;;;;7.38;4.78;;;0.00;99.90;;;;;;5082634;28;20067;-65
2023/03/12 02:39:00;;;;;;;8.55;5.43;;;0.00;99.90;;;;;;5081616;28;20086;-65
2023/03/12 02:41:30;;;;;;;9.60;5.32;;;0.00;99.90;;;;;;5081493;28;20426;-64
2023/03/12 02:44:04;;;;;;;7.82;4.78;;;0.10;99.90;;;;;;5084306;28;20357;-64
2023/03/12 02:46:37;;;;;;;5.72;4.32;;;0.10;99.90;;;;;;5084672;28;20448;-64
2023/03/12 02:49:03;;;;;;;9.13;5.75;;;0.10;99.90;;;;;;5062359;28;20078;-64
2023/03/12 02:51:29;;;;;;;10.40;5.22;;;0.10;99.90;;;;;;5077448;28;20040;-64
2023/03/12 02:53:55;;;;;;;8.93;5.25;;;0.10;99.90;;;;;;5082850;28;20098;-64
2023/03/12 02:56:22;;;;;;;8.80;4.82;;;0.10;99.90;;;;;;5078681;28;20066;-65
2023/03/12 02:58:48;;;;;;;6.85;4.90;;;0.20;99.90;;;;;;5078205;28;20044;-64
2023/03/12 03:01:15;;;;;;;10.18;5.55;;;0.20;99.90;;;;;;5064402;28;20083;-64
2023/03/12 03:03:40;;;;;;;8.30;4.45;;;0.20;99.90;;;;;;5074915;28;20032;-64
2023/03/12 03:06:06;;;;;;;7.78;4.50;;;0.20;99.90;;;;;;5082207;28;20202;-64
2023/03/12 03:08:32;;;;;;;6.93;4.10;;;0.30;99.90;;;;;;5079981;28;20076;-64
2023/03/12 03:10:59;;;;;;;8.65;4.30;;;0.30;99.90;;;;;;5056908;28;20047;-64
2023/03/12 03:13:25;;;;;;;10.32;4.38;;;0.30;99.90;;;;;;5084137;28;20052;-64
2023/03/12 03:15:50;;;;;;;10.13;4.70;;;0.40;99.90;;;;;;5082025;28;20111;-64
2023/03/12 03:18:16;;;;;;;6.63;4.63;;;0.40;99.90;;;;;;5080914;28;20430;-64
2023/03/12 03:20:43;;;;;;;7.15;4.50;;;0.40;99.90;;;;;;5077852;28;20036;-64
2023/03/12 03:23:09;;;;;;;7.45;4.75;;;0.30;99.90;;;;;;5082154;28;20044;-64
2023/03/12 03:25:35;;;;;;;11.10;5.10;;;0.40;99.90;;;;;;5068818;28;20340;-64
2023/03/12 03:28:00;;;;;;;10.57;4.63;;;0.40;99.90;;;;;;5063170;28;20044;-64
2023/03/12 03:30:26;;;;;;;9.07;4.75;;;0.40;99.90;;;;;;5083473;28;20033;-64
2023/03/12 03:32:52;;;;;;;6.28;4.32;;;0.40;99.90;;;;;;5083692;28;20047;-64
2023/03/12 03:35:18;;;;;;;8.05;4.18;;;0.50;99.90;;;;;;5081945;28;20395;-64
2023/03/12 03:37:44;;;;;;;9.40;4.82;;;0.40;99.90;;;;;;5068920;28;20051;-63
2023/03/12 03:40:11;;;;;;;7.43;4.80;;;0.40;99.90;;;;;;5077599;28;20499;-64
2023/03/12 03:42:38;;;;;;;8.95;4.57;;;0.40;99.90;;;;;;5068313;28;20056;-64
2023/03/12 03:45:05;;;;;;;10.55;4.40;;;0.40;99.90;;;;;;5079500;28;20118;-64
2023/03/12 03:47:31;;;;;;;6.55;4.57;;;0.40;99.90;;;;;;5065433;28;20039;-64
2023/03/12 03:49:57;;;;;;;7.93;4.50;;;0.40;99.90;;;;;;5087667;28;20051;-64
2023/03/12 03:52:22;;;;;;;7.47;5.18;;;0.40;99.90;;;;;;5066210;28;20051;-64
2023/03/12 03:54:48;;;;;;;8.85;4.57;;;0.40;99.90;;;;;;5085396;28;20109;-64
2023/03/12 03:57:14;;;;;;;7.50;4.50;;;0.40;99.90;;;;;;5087322;28;20455;-64
2023/03/12 03:59:39;;;;;;;7.82;4.28;;;0.40;99.90;;;;;;5078363;28;20058;-64
2023/03/12 04:02:05;;;;;;;10.20;5.00;;;0.50;99.90;;;;;;5084211;28;20114;-64
2023/03/12 04:04:31;;;;;;;8.35;4.65;;;0.50;99.90;;;;;;5086656;28;20282;-64
2023/03/12 04:06:57;;;;;;;12.00;4.65;;;0.50;99.90;;;;;;5084795;28;20037;-64
2023/03/12 04:09:22;;;;;;;7.25;4.57;;;0.50;99.90;;;;;;5081048;28;20062;-64
2023/03/12 04:11:48;;;;;;;7.50;4.90;;;0.50;99.90;;;;;;5085648;28;20555;-64
2023/03/12 04:14:14;;;;;;;10.88;4.75;;;0.50;99.90;;;;;;5084989;28;20453;-64
2023/03/12 04:16:39;;;;;;;11.07;4.93;;;0.50;99.90;;;;;;5082101;28;20419;-64
2023/03/12 04:19:05;;;;;;;7.53;4.70;;;0.50;99.90;;;;;;5084379;28;20081;-64
2023/03/12 04:21:31;;;;;;;12.63;5.53;;;0.60;99.90;;;;;;5084230;28;20050;-64
2023/03/12 04:23:56;;;;;;;9.98;4.47;;;0.60;99.90;;;;;;5083229;28;20036;-64
2023/03/12 04:26:22;;;;;;;9.40;4.55;;;0.60;99.90;;;;;;5085748;28;21217;-63
2023/03/12 04:28:48;;;;;;;11.45;4.68;;;0.60;99.90;;;;;;5061771;28;20465;-64
2023/03/12 04:31:13;;;;;;;9.38;4.35;;;0.60;99.90;;;;;;5067432;28;20098;-64
2023/03/12 04:33:39;;;;;;;7.43;4.47;;;0.70;99.90;;;;;;5083496;28;20032;-64
2023/03/12 04:36:06;;;;;;;7.38;4.32;;;0.70;99.90;;;;;;5083082;28;20044;-64
2023/03/12 04:38:32;;;;;;;5.97;4.10;;;0.70;99.90;;;;;;5083528;28;20071;-63
2023/03/12 04:41:11;;;;;;;11.60;4.18;;;0.70;99.90;;;;;;5064858;28;20068;-64
2023/03/12 04:43:37;;;;;;;9.02;4.47;;;0.70;99.90;;;;;;5087285;28;20433;-64
2023/03/12 04:46:04;;;;;;;6.85;4.03;;;0.80;99.90;;;;;;5064183;28;20059;-64
2023/03/12 04:48:30;;;;;;;9.38;4.88;;;0.80;99.90;;;;;;5086597;28;20040;-64
2023/03/12 04:50:55;;;;;;;7.03;4.60;;;0.80;99.90;;;;;;5086983;28;20036;-64
2023/03/12 04:53:21;;;;;;;7.75;4.35;;;0.80;99.90;;;;;;5080015;28;20037;-64
2023/03/12 04:55:47;;;;;;;8.05;4.15;;;0.80;99.90;;;;;;5083203;28;20080;-64
2023/03/12 04:58:13;;;;;;;8.60;4.28;;;0.80;99.90;;;;;;5069722;28;20376;-64
2023/03/12 05:00:40;;;;;;;8.98;4.72;;;0.80;99.90;;;;;;5083023;28;20088;-64
2023/03/12 05:03:06;;;;;;;8.75;4.88;;;0.90;99.90;;;;;;5083600;28;20477;-64
2023/03/12 05:05:32;;;;;;;8.15;4.40;;;0.90;99.90;;;;;;5066693;28;20032;-64
2023/03/12 05:07:58;;;;;;;9.07;4.20;;;0.90;99.90;;;;;;5083141;28;20419;-64
2023/03/12 05:10:24;;;;;;;9.00;4.30;;;0.90;99.90;;;;;;5085715;28;20240;-64
2023/03/12 05:12:50;;;;;;;8.95;4.10;;;1.00;99.90;;;;;;5071139;28;20063;-64
2023/03/12 05:15:16;;;;;;;9.13;4.30;;;1.00;99.90;;;;;;5066104;28;20127;-64
2023/03/12 05:17:43;;;;;;;6.80;4.10;;;0.90;99.90;;;;;;5071929;28;20048;-64
2023/03/12 05:20:09;;;;;;;9.35;4.25;;;1.00;99.90;;;;;;5066910;28;20811;-63
2023/03/12 05:22:35;;;;;;;11.85;4.43;;;1.00;99.90;;;;;;5084605;28;20657;-64
2023/03/12 05:25:02;;;;;;;9.68;4.75;;;1.00;99.90;;;;;;5084262;28;20043;-63
2023/03/12 05:27:27;;;;;;;10.32;4.82;;;1.00;99.90;;;;;;5085728;28;20094;-63
2023/03/12 05:29:53;;;;;;;9.63;4.78;;;1.00;99.90;;;;;;5081783;28;20495;-64
2023/03/12 05:32:19;;;;;;;8.27;4.13;;;1.00;99.90;;;;;;5074906;28;20036;-63
2023/03/12 05:34:45;;;;;;;7.40;4.75;;;1.00;99.90;;;;;;5085845;28;20101;-64
2023/03/12 05:37:10;;;;;;;10.00;4.80;;;1.00;99.90;;;;;;5081457;28;20036;-63
2023/03/12 05:39:36;;;;;;;11.07;5.30;;;1.10;99.90;;;;;;5084007;28;20514;-64
2023/03/12 05:42:03;;;;;;;7.78;4.00;;;1.10;99.90;;;;;;5080791;28;20510;-63
2023/03/12 05:44:29;;;;;;;10.20;4.40;;;1.10;99.90;;;;;;5079855;28;20036;-64
2023/03/12 05:46:54;;;;;;;8.30;4.50;;;1.10;99.90;;;;;;5069030;28;20046;-63
2023/03/12 05:49:20;;;;;;;10.43;5.15;;;1.10;99.90;;;;;;5061861;28;20120;-64
2023/03/12 05:51:47;;;;;;;10.35;4.80;;;1.10;99.90;;;;;;5085917;28;20028;-65
2023/03/12 05:54:14;;;;;;;8.77;5.15;;;1.10;99.90;;;;;;5081844;28;20109;-63
2023/03/12 05:56:39;;;;;;;5.53;4.10;;;1.10;99.90;;;;;;5083038;28;20098;-64
2023/03/12 05:59:05;;;;;;;9.57;5.00;;;1.20;99.90;;;;;;5083547;28;20204;-64
2023/03/12 06:01:32;;;;;;;9.68;5.07;;;1.20;99.90;;;;;;5078709;28;20037;-64
2023/03/12 06:03:58;;;;;;;9.98;5.28;;;1.10;99.90;;;;;;5085480;28;20027;-64
2023/03/12 06:06:24;;;;;;;10.50;4.80;;;1.20;99.90;;;;;;5080926;28;20039;-64
2023/03/12 06:08:51;;;;;;;7.78;4.45;;;1.20;99.90;;;;;;5070188;28;20122;-64
2023/03/12 06:11:17;;;;;;;7.55;4.63;;;1.20;99.90;;;;;;5078682;28;20036;-64
2023/03/12 06:13:42;;;;;;;7.18;4.55;;;1.20;99.90;;;;;;5078465;28;20192;-65
2023/03/12 06:16:14;;;;;;;9.00;5.00;;;1.20;99.90;;;;;;5080255;28;20032;-64
2023/03/12 06:18:40;;;;;;;10.63;6.07;;;1.30;99.90;;;;;;5084080;28;20485;-64
2023/03/12 06:21:19;;;;;;;10.85;4.93;;;1.30;99.90;;;;;;5079698;28;20051;-64
2023/03/12 06:23:45;;;;;;;8.48;4.65;;;1.30;99.90;;;;;;5083478;28;20047;-64
2023/03/12 06:26:11;;;;;;;8.68;4.68;;;1.30;99.90;;;;;;5083758;28;20047;-65
2023/03/12 06:28:37;;;;;;;8.40;5.30;;;1.30;99.90;;;;;;5079618;28;20032;-64
2023/03/12 06:31:05;;;;;;;12.15;4.85;;;1.30;99.90;;;;;;5084005;28;20036;-64
2023/03/12 06:33:31;;;;;;;9.00;5.05;;;1.40;99.90;;;;;;5078145;28;20117;-64
2023/03/12 06:35:59;;;;;;;10.45;5.47;;;1.40;99.90;;;;;;5078366;28;20534;-64
2023/03/12 06:38:26;;;;;;;10.70;5.63;;;1.30;99.90;;;;;;5078323;28;20037;-64
2023/03/12 06:40:56;;;;;;;9.60;4.80;;;1.40;99.90;;;;;;5076563;28;20039;-65
2023/03/12 06:43:24;;;;;;;10.27;4.68;;;1.40;99.90;;;;;;5080603;28;20043;-64
2023/03/12 06:45:50;;;;;;;9.05;5.22;;;1.50;99.90;;;;;;5080148;28;20625;-64
2023/03/12 06:48:15;;;;;;;9.15;4.70;;;1.50;99.90;;;;;;5083678;28;20123;-64
2023/03/12 06:50:41;;;;;;;12.15;5.20;;;1.50;99.90;;;;;;5077176;28;20499;-64
2023/03/12 06:53:07;;;;;;;7.43;5.03;;;1.50;99.90;;;;;;5066588;28;20044;-64
2023/03/12 06:55:33;;;;;;;9.02;5.45;;;1.50;99.90;;;;;;5085510;28;20491;-65
2023/03/12 06:57:58;;;;;;;10.48;5.32;;;1.60;99.90;;;;;;5077602;28;20096;-64
2023/03/12 07:00:24;;;;;;;10.15;4.55;;;1.60;99.90;;;;;;5055314;28;20285;-64
2023/03/12 07:02:50;;;;;;;10.60;5.63;;;1.60;99.90;;;;;;5077807;28;20433;-64
2023/03/12 07:05:16;;;;;;;14.25;8.75;;;1.60;99.90;;;;;;5063749;28;20377;-64
2023/03/12 07:07:41;;;;;;;11.05;6.78;;;1.60;99.90;;;;;;5079682;28;20055;-64
2023/03/12 07:10:09;;;;;;;11.57;5.18;;;1.60;99.90;;;;;;5077309;28;20027;-65
2023/03/12 07:12:35;;;;;;;8.73;5.18;;;1.60;99.90;;;;;;5081195;28;20089;-65
2023/03/12 07:15:01;;;;;;;8.32;4.75;;;1.60;99.90;;;;;;5080812;28;20052;-64
2023/03/12 07:17:26;;;;;;;9.00;4.95;;;1.60;99.90;;;;;;5081498;28;20047;-64
2023/03/12 07:19:52;;;;;;;12.93;6.10;;;1.60;99.90;;;;;;5075911;28;20381;-65
2023/03/12 07:22:18;;;;;;;11.63;5.60;;;1.60;99.90;;;;;;5082503;28;20055;-65
2023/03/12 07:24:44;;;;;;;10.93;5.53;;;1.60;99.90;;;;;;5080108;28;20916;-64
2023/03/12 07:27:10;;;;;;;11.18;5.78;;;1.60;99.90;;;;;;5063951;28;20055;-64
2023/03/12 07:29:35;;;;;;;10.20;5.38;;;1.60;99.90;;;;;;5078261;28;20028;-65
2023/03/12 07:32:01;;;;;;;11.98;6.28;;;1.60;99.90;;;;;;5080830;28;20169;-65
2023/03/12 07:34:27;;;;;;;8.90;6.00;;;1.60;99.90;;;;;;5082976;28;20079;-65
2023/03/12 07:36:53;;;;;;;13.40;5.55;;;1.60;99.90;;;;;;5081569;28;20048;-65
2023/03/12 07:39:19;;;;;;;14.10;6.50;;;1.60;99.90;;;;;;5058410;28;20109;-64
2023/03/12 07:41:45;;;;;;;11.07;5.90;;;1.60;99.90;;;;;;5083157;28;20040;-65
2023/03/12 07:44:11;;;;;;;12.35;5.90;;;1.60;99.90;;;;;;5080736;28;20089;-65
2023/03/12 07:46:36;;;;;;;10.65;6.25;;;1.50;99.90;;;;;;5064106;28;20480;-65
2023/03/12 07:49:03;;;;;;;11.82;6.30;;;1.60;99.90;;;;;;5078291;28;20046;-65
2023/03/12 07:51:29;;;;;;;12.73;6.28;;;1.60;99.90;;;;;;5061970;28;20489;-65
2023/03/12 07:54:01;;;;;;;12.32;6.13;;;1.60;99.90;;;;;;5073391;28;20046;-65
2023/03/12 07:56:40;;;;;;;10.65;6.05;;;1.60;99.90;;;;;;5079475;28;20533;-65
2023/03/12 07:59:18;;;;;;;8.35;6.07;;;1.50;99.90;;;;;;5081102;28;20043;-65
2023/03/12 08:01:58;;;;;;;10.63;6.45;;;1.50;99.90;;;;;;5062699;28;20108;-65
2023/03/12 08:04:30;;;;;;;12.27;6.55;;;1.50;99.90;;;;;;5064810;28;20040;-64
2023/03/12 08:07:02;;;;;;;10.50;5.68;;;1.50;99.90;;;;;;5077265;28;20544;-64
2023/03/12 08:13:12;;;;;;;8.98;5.65;;;1.50;99.90;;;;;;5067802;28;20060;-64
2023/03/12 08:15:38;;;;;;;11.43;5.75;;;1.50;99.90;;;;;;5073369;28;20040;-64
2023/03/12 08:18:03;;;;;;;11.80;6.00;;;1.50;99.90;;;;;;5056491;28;20044;-64
2023/03/12 08:20:29;;;;;;;10.00;6.10;;;1.60;99.90;;;;;;5081996;28;20040;-64
2023/03/12 08:22:55;;;;;;;14.10;6.28;;;1.60;99.90;;;;;;5078796;28;20113;-64
2023/03/12 08:25:23;;;;;;;9.48;5.97;;;1.60;99.90;;;;;;5072472;28;20051;-64
2023/03/12 08:27:49;;;;;;;7.75;5.90;;;1.60;99.90;;;;;;5063123;28;20052;-65
2023/03/12 08:30:15;;;;;;;10.13;5.90;;;1.60;99.90;;;;;;5080693;28;20044;-65
2023/03/12 08:32:41;;;;;;;6.95;5.05;;;1.60;99.90;;;;;;5079139;28;20243;-65
2023/03/12 08:35:08;;;;;;;9.93;5.97;;;1.60;99.90;;;;;;5083502;28;20124;-65
2023/03/12 08:37:34;;;;;;;12.70;5.40;;;1.60;99.90;;;;;;5085328;28;20174;-65
2023/03/12 08:40:01;;;;;;;9.85;5.68;;;1.60;99.90;;;;;;5054382;28;20047;-65
2023/03/12 08:42:27;;;;;;;10.63;6.50;;;1.60;99.90;;;;;;5084646;28;20040;-65
2023/03/12 08:44:52;;;;;;;14.15;6.13;;;1.60;99.90;;;;;;5084409;28;20062;-65
2023/03/12 08:47:18;;;;;;;12.05;6.05;;;1.60;99.90;;;;;;5085001;28;20028;-65
2023/03/12 08:49:44;;;;;;;11.43;6.63;;;1.70;99.90;;;;;;5067056;28;20055;-64
2023/03/12 08:52:09;;;;;;;9.63;5.78;;;1.70;99.90;;;;;;5082833;28;20048;-65
2023/03/12 08:54:35;;;;;;;13.13;5.75;;;1.70;99.90;;;;;;5052284;28;20045;-65
2023/03/12 08:57:01;;;;;;;10.38;5.50;;;1.70;99.90;;;;;;5071556;28;20110;-65
2023/03/12 08:59:27;;;;;;;9.60;5.68;;;1.80;99.90;;;;;;5082505;28;20494;-66
2023/03/12 09:01:52;;;;;;;8.70;5.90;;;1.80;99.90;;;;;;5079314;28;20130;-65
2023/03/12 09:04:18;;;;;;;9.15;5.82;;;1.80;99.90;;;;;;5079004;28;20071;-65
2023/03/12 09:06:44;;;;;;;11.95;6.53;;;1.90;99.90;;;;;;5071444;28;20040;-65
2023/03/12 09:09:10;;;;;;;9.63;6.18;;;1.90;99.90;;;;;;5083848;28;20107;-65
2023/03/12 09:11:38;;;;;;;14.65;6.13;;;1.90;99.90;;;;;;5075274;28;20046;-65
2023/03/12 09:14:04;;;;;;;12.00;6.60;;;1.90;99.90;;;;;;5078205;28;20448;-65
2023/03/12 09:16:30;;;;;;;10.20;6.20;;;2.00;99.90;;;;;;5063623;28;20632;-66
2023/03/12 09:18:56;;;;;;;13.30;6.20;;;1.90;99.90;;;;;;5083195;28;20064;-66
2023/03/12 09:21:22;;;;;;;11.75;6.30;;;2.00;99.90;;;;;;5080041;28;20091;-66
2023/03/12 09:23:48;;;;;;;14.35;6.53;;;2.00;99.90;;;;;;5072872;28;20048;-66
2023/03/12 09:26:14;;;;;;;10.65;6.40;;;1.90;99.90;;;;;;5086329;28;20364;-66
2023/03/12 09:28:41;;;;;;;12.40;6.35;;;2.00;99.90;;;;;;5070980;28;20097;-66
2023/03/12 09:31:07;;;;;;;11.35;6.60;;;2.00;99.90;;;;;;5082762;28;20033;-67
2023/03/12 09:33:34;;;;;;;9.93;6.40;;;2.10;99.90;;;;;;5085614;28;20028;-66
2023/03/12 09:36:01;;;;;;;11.07;7.55;;;2.10;99.90;;;;;;5072941;28;20047;-66
2023/03/12 09:38:27;;;;;;;12.23;7.13;;;2.10;99.90;;;;;;5085855;28;20103;-66
2023/03/12 09:40:53;;;;;;;11.50;7.72;;;2.10;99.90;;;;;;5081991;28;20925;-66
2023/03/12 09:43:32;;;;;;;12.65;8.02;;;2.10;99.90;;;;;;5090402;28;20123;-66
2023/03/12 09:45:59;;;;;;;13.13;8.52;;;2.20;99.90;;;;;;5066978;28;20205;-66
2023/03/12 09:48:32;;;;;;;12.07;8.57;;;2.20;99.90;;;;;;5082278;28;20036;-66
2023/03/12 09:51:19;;;;;;;11.43;8.27;;;2.20;99.90;;;;;;5069331;28;20313;-66
2023/03/12 09:53:52;;;;;;;15.32;8.80;;;2.20;99.90;;;;;;5082329;28;20105;-65
2023/03/12 09:56:20;;;;;;;12.43;8.95;;;2.20;99.90;;;;;;5085419;28;20344;-66
2023/03/12 09:58:47;;;;;;;12.30;8.25;;;2.30;99.90;;;;;;5070322;28;20046;-65
2023/03/12 10:01:28;;;;;;;13.45;8.93;;;2.30;99.90;;;;;;5067687;28;20048;-64
2023/03/12 10:04:06;;;;;;;12.10;8.68;;;2.40;99.90;;;;;;5083668;28;20036;-64
2023/03/12 10:06:57;;;;;;;13.18;8.77;;;2.40;99.90;;;;;;5083671;28;20055;-64
2023/03/12 10:10:01;;;;;;;11.70;8.05;;;2.40;99.90;;;;;;5079537;28;20068;-65
2023/03/12 10:12:42;;;;;;;13.95;8.57;;;2.50;99.90;;;;;;5069204;28;20044;-65
2023/03/12 10:15:21;;;;;;;15.98;8.30;;;2.40;99.90;;;;;;5062261;28;20304;-65
2023/03/12 10:18:01;;;;;;;11.15;9.30;;;2.50;99.90;;;;;;5083391;28;20502;-66
2023/03/12 10:20:50;;;;;;;17.48;9.68;;;2.60;99.90;;;;;;5068351;28;20463;-64
2023/03/12 10:23:22;;;;;;;14.77;9.10;;;2.60;99.90;;;;;;5063882;28;20032;-64
2023/03/12 10:25:47;;;;;;;12.77;9.52;;;2.70;99.90;;;;;;5083378;28;20040;-64
2023/03/12 10:28:17;;;;;;;14.00;9.32;;;2.80;99.90;;;;;;5080435;28;20061;-64
2023/03/12 10:30:50;;;;;;;11.48;9.57;;;2.80;99.90;;;;;;5076316;28;20036;-65
2023/03/12 10:33:18;;;;;;;12.55;9.27;;;2.80;99.90;;;;;;5068599;28;20048;-64
2023/03/12 10:35:44;;;;;;;13.63;10.07;;;2.90;99.90;;;;;;5082709;28;20052;-65
2023/03/12 10:38:19;;;;;;;14.80;10.00;;;2.90;99.90;;;;;;5081470;28;20040;-65
2023/03/12 10:40:46;;;;;;;16.20;10.30;;;2.90;99.90;;;;;;5078150;28;20087;-64
2023/03/12 10:43:12;;;;;;;13.52;10.05;;;3.00;99.90;;;;;;5080824;28;20072;-64
2023/03/12 10:45:51;;;;;;;14.88;10.02;;;3.00;99.90;;;;;;5065491;28;20505;-65
2023/03/12 10:48:19;;;;;;;14.60;9.93;;;3.10;99.90;;;;;;5080009;28;20037;-66
2023/03/12 10:51:04;;;;;;;13.45;10.05;;;3.10;99.90;;;;;;5047979;28;20075;-65
2023/03/12 10:53:33;;;;;;;15.20;9.35;;;3.20;99.90;;;;;;5081326;28;20118;-65
2023/03/12 10:56:09;;;;;;;16.58;10.20;;;3.20;99.90;;;;;;5062203;28;20071;-66
2023/03/12 10:58:50;;;;;;;12.10;9.45;;;3.30;99.90;;;;;;5065938;28;20058;-65
2023/03/12 11:01:23;;;;;;;13.23;9.75;;;3.30;99.90;;;;;;5082303;28;20059;-65
2023/03/12 11:03:50;;;;;;;14.45;9.63;;;3.40;99.90;;;;;;5068836;28;20044;-65
2023/03/12 11:06:29;;;;;;;17.58;10.50;;;3.50;99.90;;;;;;5057096;28;20040;-65
2023/03/12 11:09:18;;;;;;;12.65;9.98;;;3.50;99.90;;;;;;5080723;28;20042;-65
2023/03/12 11:11:47;;;;;;;14.13;9.57;;;3.50;99.90;;;;;;5082472;28;20446;-64
2023/03/12 11:14:20;;;;;;;11.95;10.23;;;3.60;99.90;;;;;;5078240;28;20132;-65
2023/03/12 11:16:46;;;;;;;11.05;9.90;;;3.60;99.90;;;;;;5060926;28;20129;-65
2023/03/12 11:19:13;;;;;;;11.82;10.00;;;3.70;99.90;;;;;;5086697;28;20131;-66
2023/03/12 11:21:39;;;;;;;15.15;10.65;;;3.70;99.90;;;;;;5065066;28;20039;-66
2023/03/12 11:24:11;;;;;;;15.73;10.68;;;3.80;99.90;;;;;;5079689;28;20043;-66
2023/03/12 11:26:37;;;;;;;16.88;10.98;;;3.90;99.90;;;;;;5076528;28;20107;-66
2023/03/12 11:29:38;;;;;;;20.05;11.63;;;4.00;99.90;;;;;;5079932;28;20127;-65
2023/03/12 11:32:22;;;;;;;14.63;10.82;;;4.10;99.90;;;;;;5070674;28;20080;-66
2023/03/12 11:34:49;;;;;;;19.13;11.75;;;4.20;99.90;;;;;;5081115;28;20072;-66
2023/03/12 11:37:33;;;;;;;16.30;12.00;;;4.20;99.90;;;;;;5077756;28;20067;-63
2023/03/12 11:40:20;;;;;;;18.88;12.27;;;4.30;99.90;;;;;;5082898;28;20140;-62
2023/03/12 11:43:01;;;;;;;18.85;11.38;;;4.50;99.90;;;;;;5078013;28;20109;-65
2023/03/12 11:46:04;;;;;;;19.13;12.35;;;4.50;99.90;;;;;;5080729;28;20040;-65
2023/03/12 11:48:47;;;;;;;17.30;11.35;;;4.60;99.90;;;;;;5066319;28;20441;-65
2023/03/12 11:52:04;;;;;;;18.60;12.68;;;4.70;99.90;;;;;;5081049;28;20438;-65
2023/03/12 11:55:00;;;;;;;18.80;12.55;;;4.90;99.90;;;;;;5009274;28;20395;-65
2023/03/12 11:57:37;;;;;;;23.55;13.70;;;5.10;99.90;;;;;;5082912;28;20041;-64
2023/03/12 12:00:17;;;;;;;15.23;12.95;;;5.30;99.90;;;;;;5082526;28;20502;-65
2023/03/12 12:02:46;;;;;;;17.65;12.25;;;5.30;99.90;;;;;;5066815;28;20060;-66
2023/03/12 12:05:17;;;;;;;19.90;13.25;;;5.40;99.90;;;;;;5084617;28;20029;-66
2023/03/12 12:07:52;;;;;;;15.70;11.30;;;5.40;99.90;;;;;;5061334;28;20119;-64
2023/03/12 12:10:26;;;;;;;17.40;12.25;;;5.50;99.90;;;;;;5067178;28;20043;-64
2023/03/12 12:13:07;;;;;;;16.73;12.02;;;5.50;99.90;;;;;;5068680;28;20110;-65
2023/03/12 12:15:42;;;;;;;16.52;12.98;;;5.50;99.90;;;;;;5088214;28;20044;-64
2023/03/12 12:18:29;;;;;;;18.55;13.05;;;5.60;99.90;;;;;;5084411;28;20036;-66
2023/03/12 12:21:01;;;;;;;21.08;13.65;;;5.60;99.90;;;;;;5068902;28;20131;-66
2023/03/12 12:23:48;;;;;;;22.67;14.45;;;5.70;99.90;;;;;;5082821;28;20483;-66
2023/03/12 12:26:38;;;;;;;25.15;15.75;;;5.80;99.90;;;;;;5082893;28;20040;-66
2023/03/12 12:29:24;;;;;;;22.83;14.20;;;5.90;99.90;;;;;;5084060;28;20032;-64
2023/03/12 12:31:56;;;;;;;22.02;14.23;;;6.00;99.90;;;;;;5082434;28;20491;-65
2023/03/12 12:34:46;;;;;;;23.50;15.38;;;6.20;99.90;;;;;;5085691;28;20146;-64
2023/03/12 12:37:19;;;;;;;23.80;15.50;;;6.30;99.90;;;;;;5067619;28;20069;-64
2023/03/12 12:40:03;;;;;;;25.15;15.23;;;6.40;99.90;;;;;;5071142;28;20097;-64
2023/03/12 12:42:33;;;;;;;20.02;14.05;;;6.50;99.90;;;;;;5084149;28;20040;-64
2023/03/12 12:45:02;;;;;;;22.27;14.85;;;6.70;99.90;;;;;;5080660;28;20051;-64
2023/03/12 12:47:53;;;;;;;22.48;15.45;;;6.80;99.90;;;;;;5083295;28;20096;-66
2023/03/12 12:50:24;;;;;;;29.23;16.45;;;6.90;99.90;;;;;;5065589;28;20036;-65
2023/03/12 12:53:14;;;;;;;24.30;15.98;;;7.10;99.90;;;;;;5085397;28;20043;-66
2023/03/12 12:55:49;;;;;;;23.90;16.45;;;7.20;99.90;;;;;;5084139;28;20085;-65
2023/03/12 12:58:25;;;;;;;27.08;16.85;;;7.40;99.90;;;;;;5101024;28;20073;-65
2023/03/12 13:00:56;;;;;;;22.40;14.52;;;7.50;99.90;;;;;;5075587;28;20122;-67
2023/03/12 13:03:25;;;;;;;24.10;15.40;;;7.60;99.90;;;;;;5083541;28;20055;-65